Time;durP1;ratioP1;P1;durP2;ratioP2;P2;SDS_P1;SDS_P2;PMS_P1;PMS_P2;Temp;Humidity;BMP_temperature;BMP_pressure;BME280_temperature;BME280_humidity;BME280_pressure;Samples;Min_cycle;Max_cycle;Signal;HPM_P1;HPM_P2
2023/07/23 00:00:16;;;;;;;7.10;3.20;;;;;;;22.26;100.00;101385.69;2532645;23;20225;-69
2023/07/23 00:01:16;;;;;;;5.13;3.33;;;;;;;22.42;100.00;101428.22;2533028;23;20155;-69
2023/07/23 00:02:17;;;;;;;9.40;3.20;;;;;;;22.57;100.00;101454.38;2532980;23;20155;-69
2023/07/23 00:03:17;;;;;;;9.27;3.37;;;;;;;22.62;100.00;101448.00;2532189;23;20158;-69
2023/07/23 00:04:18;;;;;;;6.20;2.83;;;;;;;22.68;100.00;101454.50;2532724;23;20185;-69
2023/07/23 00:05:19;;;;;;;6.93;3.37;;;;;;;22.72;100.00;101463.53;2532449;23;20158;-69
2023/07/23 00:06:19;;;;;;;9.63;3.17;;;;;;;22.74;100.00;101472.31;2532927;23;20453;-69
2023/07/23 00:07:19;;;;;;;7.03;3.00;;;;;;;22.52;100.00;101440.19;2532972;23;20204;-69
2023/07/23 00:08:20;;;;;;;8.33;3.33;;;;;;;22.79;100.00;101484.94;2532504;23;20162;-69
2023/07/23 00:09:20;;;;;;;9.00;3.33;;;;;;;22.80;100.00;101497.81;2533090;23;20226;-69
2023/07/23 00:10:21;;;;;;;9.57;2.90;;;;;;;22.77;100.00;101493.16;2533030;23;20151;-70
2023/07/23 00:11:21;;;;;;;10.07;3.20;;;;;;;22.80;100.00;101490.13;2533148;23;20154;-69
2023/07/23 00:12:22;;;;;;;7.47;2.90;;;;;;;22.79;100.00;101494.22;2519967;23;20190;-69
2023/07/23 00:13:22;;;;;;;8.33;3.13;;;;;;;22.49;100.00;101449.66;2518874;23;20223;-69
2023/07/23 00:14:23;;;;;;;5.83;2.70;;;;;;;22.66;100.00;101470.41;2532762;23;20166;-69
2023/07/23 00:15:23;;;;;;;5.07;2.70;;;;;;;22.63;100.00;101471.41;2532479;23;20608;-69
2023/07/23 00:16:24;;;;;;;4.13;2.57;;;;;;;22.75;100.00;101495.69;2532538;23;20194;-69
2023/07/23 00:17:25;;;;;;;7.17;2.90;;;;;;;22.76;100.00;101486.72;2533179;23;20155;-69
2023/07/23 00:18:26;;;;;;;5.80;2.97;;;;;;;22.31;100.00;101427.31;2532705;23;20160;-69
2023/07/23 00:19:26;;;;;;;3.67;2.37;;;;;;;22.34;100.00;101434.78;2533321;23;20157;-69
2023/07/23 00:20:26;;;;;;;5.77;2.67;;;;;;;22.76;100.00;101500.06;2532877;23;20202;-69
2023/07/23 00:21:27;;;;;;;5.77;2.43;;;;;;;22.78;100.00;101494.72;2533096;23;20190;-69
2023/07/23 00:22:27;;;;;;;5.70;2.60;;;;;;;22.76;100.00;101492.38;2533016;23;20150;-69
2023/07/23 00:23:28;;;;;;;3.53;2.03;;;;;;;22.72;100.00;101491.03;2532119;23;20648;-69
2023/07/23 00:24:28;;;;;;;8.13;2.60;;;;;;;22.71;100.00;101486.63;2532981;23;20497;-69
2023/07/23 00:25:29;;;;;;;7.33;2.47;;;;;;;22.71;100.00;101492.28;2532598;23;20155;-70
2023/07/23 00:26:29;;;;;;;5.27;2.30;;;;;;;22.70;100.00;101491.53;2532658;23;20178;-70
2023/07/23 00:27:29;;;;;;;5.73;2.70;;;;;;;22.69;100.00;101483.53;2532212;23;20161;-70
2023/07/23 00:28:30;;;;;;;4.13;2.30;;;;;;;22.59;100.00;101485.75;2532347;23;20556;-70
2023/07/23 00:29:30;;;;;;;6.50;2.37;;;;;;;22.53;100.00;101476.44;2532883;23;20615;-70
2023/07/23 00:30:31;;;;;;;5.17;2.00;;;;;;;22.54;100.00;101471.53;2532626;23;20497;-70
2023/07/23 00:31:31;;;;;;;5.80;2.30;;;;;;;22.41;100.00;101459.81;2533039;23;20162;-69
2023/07/23 00:32:32;;;;;;;7.40;2.43;;;;;;;22.18;100.00;101424.06;2532912;23;20182;-70
2023/07/23 00:33:32;;;;;;;6.37;2.33;;;;;;;22.54;100.00;101485.66;2532214;23;20154;-70
2023/07/23 00:34:33;;;;;;;6.23;2.20;;;;;;;22.45;100.00;101486.59;2533022;23;20691;-70
2023/07/23 00:35:33;;;;;;;5.00;2.50;;;;;;;22.46;100.00;101482.47;2532789;23;20572;-70
2023/07/23 00:36:33;;;;;;;7.13;2.30;;;;;;;21.83;100.00;101373.31;2532140;23;20225;-69
2023/07/23 00:37:34;;;;;;;5.77;2.70;;;;;;;22.32;100.00;101452.22;2532876;23;20154;-69
2023/07/23 00:38:34;;;;;;;6.03;2.90;;;;;;;22.32;100.00;101455.03;2532589;23;20158;-69
2023/07/23 00:39:35;;;;;;;6.73;2.43;;;;;;;22.44;100.00;101468.09;2532651;23;20204;-69
2023/07/23 00:40:35;;;;;;;6.03;2.60;;;;;;;22.43;100.00;101466.50;2519948;23;20171;-69
2023/07/23 00:41:35;;;;;;;5.07;2.80;;;;;;;22.36;100.00;101455.63;2519563;23;20667;-69
2023/07/23 00:42:36;;;;;;;8.27;2.63;;;;;;;22.26;100.00;101456.28;2533010;23;20638;-70
2023/07/23 00:43:36;;;;;;;9.03;3.20;;;;;;;22.28;100.00;101456.53;2532302;23;20159;-69
2023/07/23 00:44:37;;;;;;;5.73;2.53;;;;;;;21.82;100.00;101399.19;2532371;23;20151;-69
2023/07/23 00:45:37;;;;;;;5.77;2.97;;;;;;;22.30;100.00;101451.16;2532733;23;20229;-69
2023/07/23 00:46:38;;;;;;;5.43;2.43;;;;;;;22.30;100.00;101451.94;2532250;23;20178;-69
2023/07/23 00:47:38;;;;;;;6.67;3.30;;;;;;;22.27;100.00;101444.47;2532410;23;20233;-70
2023/07/23 00:48:39;;;;;;;6.23;3.00;;;;;;;22.26;100.00;101445.72;2532765;23;20160;-70
2023/07/23 00:49:39;;;;;;;4.27;2.70;;;;;;;22.27;100.00;101443.69;2532608;23;20151;-69
2023/07/23 00:50:40;;;;;;;6.43;2.90;;;;;;;21.89;100.00;101388.25;2532809;23;20154;-69
2023/07/23 00:51:41;;;;;;;5.17;2.83;;;;;;;22.22;100.00;101439.50;2532156;23;20497;-69
2023/07/23 00:52:42;;;;;;;5.80;2.80;;;;;;;21.79;100.00;101378.38;2532869;23;20344;-69
2023/07/23 00:53:44;;;;;;;8.00;3.00;;;;;;;22.20;100.00;101441.28;2532254;23;20209;-70
2023/07/23 00:54:45;;;;;;;5.00;2.57;;;;;;;22.18;100.00;101444.63;2532608;23;20158;-69
2023/07/23 00:55:46;;;;;;;5.13;2.83;;;;;;;22.19;100.00;101445.38;2531593;23;20155;-69
2023/07/23 00:56:47;;;;;;;7.30;3.10;;;;;;;22.24;100.00;101447.50;2532399;23;20162;-70
2023/07/23 00:57:48;;;;;;;9.43;3.20;;;;;;;22.19;100.00;101439.72;2531645;23;20154;-69
2023/07/23 00:58:48;;;;;;;8.97;3.17;;;;;;;22.21;100.00;101440.78;2532796;23;20608;-69
2023/07/23 00:59:49;;;;;;;6.47;3.40;;;;;;;22.14;100.00;101429.13;2532814;23;20450;-69
2023/07/23 01:00:50;;;;;;;7.37;2.70;;;;;;;22.23;100.00;101448.78;2532909;23;20230;-69
2023/07/23 01:01:51;;;;;;;8.57;3.10;;;;;;;21.67;100.00;101375.84;2532572;23;20489;-69
2023/07/23 01:02:51;;;;;;;10.27;3.20;;;;;;;22.17;100.00;101445.88;2533040;23;20157;-69
2023/07/23 01:03:51;;;;;;;6.53;3.03;;;;;;;22.19;100.00;101445.38;2532078;23;20282;-69
2023/07/23 01:04:53;;;;;;;7.43;3.20;;;;;;;21.85;100.00;101392.56;2532311;23;20592;-70
2023/07/23 01:06:00;;;;;;;7.00;2.83;;;;;;;22.15;100.00;101456.13;2532667;23;20157;-69
2023/07/23 01:07:05;;;;;;;6.83;3.13;;;;;;;22.10;100.00;101451.94;2532913;23;20161;-69
2023/07/23 01:08:07;;;;;;;6.70;3.13;;;;;;;22.13;100.00;101450.16;2531593;23;20522;-69
2023/07/23 01:09:07;;;;;;;5.83;3.13;;;;;;;22.10;100.00;101445.53;2532935;23;20297;-69
2023/07/23 01:10:09;;;;;;;6.67;3.40;;;;;;;21.68;100.00;101380.22;2532161;23;20237;-69
2023/07/23 01:11:10;;;;;;;6.10;3.60;;;;;;;22.10;100.00;101443.47;2532849;23;20177;-69
2023/07/23 01:12:11;;;;;;;6.80;3.47;;;;;;;22.04;100.00;101430.53;2532491;23;20150;-69
2023/07/23 01:13:12;;;;;;;5.33;3.13;;;;;;;22.08;100.00;101446.00;2532451;23;20204;-69
2023/07/23 01:14:12;;;;;;;4.77;3.20;;;;;;;22.09;100.00;101441.91;2532596;23;20229;-69
2023/07/23 01:15:13;;;;;;;8.10;3.63;;;;;;;22.07;100.00;101441.66;2532338;23;20154;-69
2023/07/23 01:16:13;;;;;;;6.23;3.20;;;;;;;22.04;100.00;101445.44;2532516;23;20183;-69
2023/07/23 01:17:16;;;;;;;7.03;3.60;;;;;;;22.02;100.00;101436.69;2532900;23;20158;-69
2023/07/23 01:18:17;;;;;;;6.00;3.73;;;;;;;22.02;100.00;101439.53;2531194;23;20180;-69
2023/07/23 01:19:18;;;;;;;9.57;3.60;;;;;;;22.02;100.00;101439.53;2532996;23;20156;-69
2023/07/23 01:20:19;;;;;;;6.87;3.50;;;;;;;21.98;100.00;101443.78;2532526;23;20694;-69
2023/07/23 01:21:19;;;;;;;6.20;3.60;;;;;;;21.97;100.00;101445.06;2533001;23;20165;-69
2023/07/23 01:22:19;;;;;;;7.03;3.40;;;;;;;22.00;100.00;101444.84;2532658;23;20181;-69
2023/07/23 01:23:20;;;;;;;8.90;3.37;;;;;;;22.01;100.00;101442.81;2532464;23;20162;-69
2023/07/23 01:24:20;;;;;;;8.40;3.70;;;;;;;21.89;100.00;101426.97;2532237;23;20159;-70
2023/07/23 01:25:21;;;;;;;6.83;3.90;;;;;;;21.92;100.00;101443.72;2532236;23;20182;-70
2023/07/23 01:26:21;;;;;;;6.93;3.60;;;;;;;21.92;100.00;101445.75;2532521;23;20147;-70
2023/07/23 01:27:21;;;;;;;6.43;4.00;;;;;;;21.90;100.00;101451.88;2532836;23;20177;-69
2023/07/23 01:28:22;;;;;;;5.77;3.70;;;;;;;21.89;100.00;101450.34;2531967;23;20237;-69
2023/07/23 01:29:22;;;;;;;7.83;4.07;;;;;;;21.88;100.00;101451.63;2532258;23;20593;-69
2023/07/23 01:30:23;;;;;;;5.87;3.60;;;;;;;21.84;100.00;101445.41;2532717;23;20181;-69
2023/07/23 01:31:23;;;;;;;10.30;3.93;;;;;;;21.81;100.00;101448.44;2532852;23;20504;-69
2023/07/23 01:32:24;;;;;;;5.93;3.67;;;;;;;21.84;100.00;101458.72;2532548;23;20568;-69
2023/07/23 01:33:25;;;;;;;6.17;4.00;;;;;;;21.57;100.00;101419.53;2532341;23;20233;-69
2023/07/23 01:34:26;;;;;;;6.23;3.87;;;;;;;21.83;100.00;101455.13;2532600;23;20154;-69
2023/07/23 01:35:26;;;;;;;5.50;3.70;;;;;;;21.43;100.00;101387.28;2532776;23;20160;-69
2023/07/23 01:36:27;;;;;;;7.17;4.13;;;;;;;21.87;100.00;101449.28;2532238;23;20178;-69
2023/07/23 01:37:28;;;;;;;7.13;3.90;;;;;;;21.88;100.00;101457.25;2533038;23;20185;-69
2023/07/23 01:38:28;;;;;;;8.70;4.20;;;;;;;21.89;100.00;101458.03;2531493;23;20160;-70
2023/07/23 01:39:29;;;;;;;7.27;3.70;;;;;;;21.84;100.00;101451.03;2531827;23;20151;-70
2023/07/23 01:40:29;;;;;;;11.00;4.07;;;;;;;21.91;100.00;101461.16;2532604;23;20213;-70
2023/07/23 01:41:30;;;;;;;6.93;4.17;;;;;;;21.21;100.00;101363.59;2532635;23;20205;-70
2023/07/23 01:42:31;;;;;;;6.60;4.03;;;;;;;21.79;100.00;101453.75;2532782;23;20154;-69
2023/07/23 01:43:32;;;;;;;8.63;3.90;;;;;;;21.79;100.00;101467.88;2532350;23;20273;-69
2023/07/23 01:44:32;;;;;;;7.63;3.80;;;;;;;21.83;100.00;101463.59;2532983;23;20157;-69
2023/07/23 01:45:32;;;;;;;5.90;3.80;;;;;;;21.85;100.00;101471.59;2532633;23;20161;-69
2023/07/23 01:46:33;;;;;;;9.03;4.37;;;;;;;21.84;100.00;101470.78;2532045;23;20499;-70
2023/07/23 01:47:34;;;;;;;6.80;4.03;;;;;;;21.88;100.00;101468.56;2532483;23;20158;-70
2023/07/23 01:48:34;;;;;;;7.13;4.00;;;;;;;21.88;100.00;101462.91;2532263;23;20174;-69
2023/07/23 01:49:34;;;;;;;10.03;4.13;;;;;;;21.77;100.00;101443.00;2531952;23;20189;-69
2023/07/23 01:50:35;;;;;;;6.53;3.93;;;;;;;21.85;100.00;101466.69;2532697;23;20209;-70
2023/07/23 01:51:35;;;;;;;6.70;4.33;;;;;;;21.76;100.00;101460.41;2532492;23;20274;-70
2023/07/23 01:52:36;;;;;;;7.77;4.00;;;;;;;21.87;100.00;101463.38;2532810;23;20206;-70
2023/07/23 01:53:36;;;;;;;8.07;4.60;;;;;;;21.87;100.00;101457.75;2531342;23;20158;-70
2023/07/23 01:54:36;;;;;;;9.77;4.53;;;;;;;21.88;100.00;101459.28;2519510;23;20155;-70
2023/07/23 01:55:37;;;;;;;8.33;4.30;;;;;;;21.91;100.00;101469.63;2519721;23;20602;-70
2023/07/23 01:56:37;;;;;;;5.63;3.80;;;;;;;21.94;100.00;101468.63;2531881;23;20628;-70
2023/07/23 01:57:38;;;;;;;8.73;4.23;;;;;;;21.94;100.00;101465.78;2532416;23;20977;-70
2023/07/23 01:58:38;;;;;;;8.27;4.10;;;;;;;21.94;100.00;101469.41;2532373;23;20621;-70
2023/07/23 01:59:38;;;;;;;7.13;3.70;;;;;;;21.94;100.00;101475.06;2532375;23;20388;-70
2023/07/23 02:00:39;;;;;;;10.20;4.67;;;;;;;21.88;100.00;101465.72;2531994;23;20229;-70
2023/07/23 02:01:39;;;;;;;8.13;4.40;;;;;;;21.92;100.00;101473.97;2532525;23;20150;-69
2023/07/23 02:02:40;;;;;;;9.40;4.07;;;;;;;21.93;100.00;101472.72;2532615;23;20181;-69
2023/07/23 02:03:40;;;;;;;7.03;4.00;;;;;;;21.94;100.00;101466.59;2532064;23;20593;-69
2023/07/23 02:04:41;;;;;;;7.30;4.20;;;;;;;21.61;100.00;101411.66;2532648;23;20154;-69
2023/07/23 02:05:41;;;;;;;8.67;4.07;;;;;;;21.98;100.00;101469.97;2532626;23;20186;-69
2023/07/23 02:06:42;;;;;;;8.23;4.03;;;;;;;21.99;100.00;101465.88;2532092;23;20278;-70
2023/07/23 02:07:42;;;;;;;5.77;3.93;;;;;;;21.98;100.00;101469.97;2531075;23;20702;-70
2023/07/23 02:08:42;;;;;;;8.77;4.03;;;;;;;21.99;100.00;101463.06;2532915;23;20311;-70
2023/07/23 02:09:43;;;;;;;9.83;3.60;;;;;;;21.90;100.00;101459.59;2532398;23;20182;-69
2023/07/23 02:10:43;;;;;;;9.50;3.60;;;;;;;21.90;100.00;101460.34;2532071;23;20158;-69
2023/07/23 02:11:44;;;;;;;4.73;3.57;;;;;;;21.90;100.00;101456.78;2532432;23;20155;-69
2023/07/23 02:12:44;;;;;;;6.77;3.90;;;;;;;21.92;100.00;101457.84;2532857;23;20296;-70
2023/07/23 02:13:45;;;;;;;4.27;3.10;;;;;;;21.93;100.00;101453.75;2531991;23;20590;-70
2023/07/23 02:14:45;;;;;;;7.30;3.83;;;;;;;21.90;100.00;101451.88;2532630;23;20218;-70
2023/07/23 02:15:45;;;;;;;6.23;3.60;;;;;;;21.89;100.00;101450.34;2532305;23;20190;-70
2023/07/23 02:16:46;;;;;;;4.90;3.70;;;;;;;21.82;100.00;101445.13;2532566;23;20769;-70
2023/07/23 02:17:46;;;;;;;6.77;3.50;;;;;;;21.46;100.00;101391.97;2531577;23;20483;-70
2023/07/23 02:18:47;;;;;;;6.10;3.30;;;;;;;21.90;100.00;101454.72;2532758;23;20245;-70
2023/07/23 02:19:48;;;;;;;9.30;3.37;;;;;;;21.86;100.00;101454.13;2532416;23;20155;-70
2023/07/23 02:20:48;;;;;;;7.67;3.40;;;;;;;21.86;100.00;101461.84;2532541;23;20178;-70
2023/07/23 02:21:49;;;;;;;5.60;3.00;;;;;;;21.84;100.00;101451.03;2531157;23;20556;-70
2023/07/23 02:22:49;;;;;;;6.63;3.27;;;;;;;21.83;100.00;101457.16;2532650;23;20175;-70
2023/07/23 02:23:50;;;;;;;6.97;3.70;;;;;;;21.86;100.00;101451.31;2531911;23;20154;-70
2023/07/23 02:24:51;;;;;;;4.93;3.40;;;;;;;21.87;100.00;101447.25;2532745;23;20151;-70
2023/07/23 02:25:51;;;;;;;7.10;3.30;;;;;;;21.86;100.00;101453.38;2532387;23;20178;-70
2023/07/23 02:26:52;;;;;;;7.97;2.90;;;;;;;21.77;100.00;101437.34;2532557;23;20146;-70
2023/07/23 02:27:52;;;;;;;5.30;3.40;;;;;;;21.80;100.00;101450.47;2531419;23;20157;-69
2023/07/23 02:28:52;;;;;;;7.20;3.07;;;;;;;21.85;100.00;101460.28;2532571;23;20581;-69
2023/07/23 02:29:53;;;;;;;6.43;3.17;;;;;;;21.49;100.00;101407.13;2532239;23;20161;-70
2023/07/23 02:30:57;;;;;;;5.93;3.30;;;;;;;21.38;100.00;101385.16;2520020;23;20166;-70
2023/07/23 02:31:58;;;;;;;7.73;3.13;;;;;;;21.85;100.00;101461.06;2519447;23;20226;-69
2023/07/23 02:32:58;;;;;;;5.47;2.70;;;;;;;21.85;100.00;101460.28;2532723;23;20213;-69
2023/07/23 02:33:58;;;;;;;6.87;2.90;;;;;;;21.84;100.00;101459.50;2531898;23;20174;-69
2023/07/23 02:35:00;;;;;;;6.30;3.10;;;;;;;21.87;100.00;101463.38;2532259;23;20147;-69
2023/07/23 02:36:00;;;;;;;7.53;3.20;;;;;;;21.90;100.00;101460.34;2531679;23;20557;-69
2023/07/23 02:37:01;;;;;;;4.43;2.90;;;;;;;21.61;100.00;101412.44;2519788;23;20158;-69
2023/07/23 02:38:01;;;;;;;6.27;2.90;;;;;;;21.84;100.00;101456.69;2518696;23;20592;-69
2023/07/23 02:39:03;;;;;;;6.10;2.90;;;;;;;21.62;100.00;101418.84;2532632;23;20155;-70
2023/07/23 02:40:03;;;;;;;7.37;2.77;;;;;;;21.86;100.00;101454.13;2532491;23;20150;-70
2023/07/23 02:41:04;;;;;;;6.07;2.90;;;;;;;21.88;100.00;101456.47;2532720;23;20161;-69
2023/07/23 02:42:04;;;;;;;6.27;3.00;;;;;;;21.90;100.00;101446.25;2532003;23;20585;-69
2023/07/23 02:43:05;;;;;;;6.57;2.83;;;;;;;21.86;100.00;101453.38;2532135;23;20221;-69
2023/07/23 02:44:05;;;;;;;4.43;2.87;;;;;;;21.56;100.00;101404.69;2532267;23;20178;-69
2023/07/23 02:45:06;;;;;;;5.17;3.10;;;;;;;21.86;100.00;101451.31;2532515;23;20643;-69
2023/07/23 02:46:07;;;;;;;7.73;3.47;;;;;;;21.86;100.00;101447.72;2532449;23;20477;-69
2023/07/23 02:47:07;;;;;;;5.10;2.63;;;;;;;21.87;100.00;101454.91;2532527;23;20147;-69
2023/07/23 02:48:07;;;;;;;5.90;2.47;;;;;;;21.85;100.00;101441.31;2531543;23;20687;-69
2023/07/23 02:49:08;;;;;;;5.43;2.60;;;;;;;21.81;100.00;101432.25;2532669;23;20501;-69
2023/07/23 02:50:08;;;;;;;5.97;2.67;;;;;;;21.40;100.00;101376.97;2531852;23;20503;-69
2023/07/23 02:51:09;;;;;;;5.30;2.23;;;;;;;21.84;100.00;101448.22;2532713;23;20154;-69
2023/07/23 02:52:09;;;;;;;3.33;2.50;;;;;;;21.69;100.00;101421.31;2532131;23;20150;-69
2023/07/23 02:53:10;;;;;;;8.73;3.00;;;;;;;21.85;100.00;101444.13;2531412;23;20158;-69
2023/07/23 02:54:10;;;;;;;4.67;2.90;;;;;;;21.81;100.00;101437.91;2532201;23;20237;-69
2023/07/23 02:55:11;;;;;;;6.20;2.70;;;;;;;21.89;100.00;101453.16;2532625;23;20242;-69
2023/07/23 02:56:12;;;;;;;4.13;2.57;;;;;;;21.86;100.00;101445.66;2532293;23;20773;-69
2023/07/23 02:57:12;;;;;;;6.77;2.70;;;;;;;21.87;100.00;101446.47;2532604;23;20548;-69
2023/07/23 02:58:13;;;;;;;3.50;2.40;;;;;;;21.91;100.00;101447.03;2531605;23;20255;-69
2023/07/23 02:59:13;;;;;;;5.27;2.50;;;;;;;21.68;100.00;101428.19;2532400;23;20181;-69
2023/07/23 03:00:14;;;;;;;3.13;2.30;;;;;;;21.49;100.00;101390.97;2519392;23;20202;-69
2023/07/23 03:01:14;;;;;;;6.87;2.47;;;;;;;21.91;100.00;101438.56;2519942;23;20155;-69
2023/07/23 03:02:14;;;;;;;6.73;2.70;;;;;;;21.81;100.00;101432.25;2532348;23;20266;-69
2023/07/23 03:03:15;;;;;;;9.23;2.43;;;;;;;21.35;100.00;101357.16;2531450;23;20155;-69
2023/07/23 03:04:15;;;;;;;7.30;2.50;;;;;;;21.96;100.00;101444.28;2532267;23;20159;-69
2023/07/23 03:05:16;;;;;;;7.37;2.57;;;;;;;21.95;100.00;101442.72;2531918;23;20151;-69
2023/07/23 03:06:16;;;;;;;9.33;2.50;;;;;;;21.92;100.00;101440.13;2532103;23;20155;-69
2023/07/23 03:07:17;;;;;;;6.93;2.37;;;;;;;21.94;100.00;101441.19;2532508;23;20181;-69
2023/07/23 03:08:17;;;;;;;10.83;2.77;;;;;;;21.93;100.00;101438.84;2531950;23;20605;-69
2023/07/23 03:09:18;;;;;;;8.80;2.80;;;;;;;21.92;100.00;101445.75;2532034;23;20541;-69
2023/07/23 03:10:18;;;;;;;8.10;2.90;;;;;;;21.91;100.00;101441.41;2532482;23;20229;-69
2023/07/23 03:11:19;;;;;;;5.67;2.63;;;;;;;21.86;100.00;101444.91;2532425;23;20158;-69
2023/07/23 03:12:19;;;;;;;6.73;2.70;;;;;;;21.88;100.00;101437.50;2532250;23;20209;-69
2023/07/23 03:13:20;;;;;;;8.93;2.70;;;;;;;21.90;100.00;101437.78;2532006;23;20209;-69
2023/07/23 03:14:20;;;;;;;5.63;2.80;;;;;;;21.91;100.00;101442.16;2531927;23;20151;-69
2023/07/23 03:15:21;;;;;;;6.10;2.67;;;;;;;21.93;100.00;101441.66;2532591;23;20179;-69
2023/07/23 03:16:22;;;;;;;8.90;2.43;;;;;;;21.38;100.00;101359.00;2532241;23;20222;-69
2023/07/23 03:17:23;;;;;;;15.70;3.33;;;;;;;21.77;100.00;101426.06;2532655;23;20209;-69
2023/07/23 03:18:23;;;;;;;5.33;2.43;;;;;;;21.92;100.00;101435.25;2531800;23;20189;-69
2023/07/23 03:19:23;;;;;;;7.27;2.80;;;;;;;21.93;100.00;101438.84;2531533;23;20253;-69
2023/07/23 03:20:24;;;;;;;8.73;3.00;;;;;;;21.95;100.00;101439.91;2533088;23;20655;-69
2023/07/23 03:21:24;;;;;;;6.73;2.60;;;;;;;21.97;100.00;101439.44;2533274;23;20593;-69
2023/07/23 03:22:25;;;;;;;7.03;2.30;;;;;;;21.96;100.00;101443.53;2520413;23;20199;-69
2023/07/23 03:23:26;;;;;;;5.43;2.40;;;;;;;21.97;100.00;101434.56;2520010;23;20183;-69
2023/07/23 03:24:26;;;;;;;5.43;2.73;;;;;;;21.97;100.00;101437.38;2532336;23;20150;-69
2023/07/23 03:25:27;;;;;;;6.53;2.70;;;;;;;21.82;100.00;101425.38;2533454;23;20174;-69
2023/07/23 03:26:27;;;;;;;6.80;2.87;;;;;;;21.91;100.00;101427.28;2532838;23;20297;-69
2023/07/23 03:27:28;;;;;;;4.70;2.60;;;;;;;21.85;100.00;101432.84;2533310;23;20271;-69
2023/07/23 03:28:28;;;;;;;7.10;2.50;;;;;;;21.90;100.00;101439.84;2532496;23;20151;-69
2023/07/23 03:29:28;;;;;;;5.97;2.30;;;;;;;21.77;100.00;101426.06;2532881;23;20344;-69
2023/07/23 03:30:29;;;;;;;4.67;2.30;;;;;;;21.76;100.00;101435.00;2533279;23;20159;-69
2023/07/23 03:31:29;;;;;;;4.13;2.50;;;;;;;21.14;100.00;101359.13;2520442;23;20159;-69
2023/07/23 03:32:30;;;;;;;7.00;2.50;;;;;;;21.77;100.00;101445.81;2520280;23;20614;-69
2023/07/23 03:33:30;;;;;;;7.43;2.63;;;;;;;21.08;100.00;101338.53;2532097;23;20202;-69
2023/07/23 03:34:31;;;;;;;3.77;2.20;;;;;;;21.77;100.00;101450.66;2532394;23;20157;-69
2023/07/23 03:35:31;;;;;;;4.53;2.83;;;;;;;21.43;100.00;101400.59;2533174;23;20181;-69
2023/07/23 03:36:31;;;;;;;5.53;2.33;;;;;;;21.46;100.00;101405.28;2533015;23;20531;-69
2023/07/23 03:37:32;;;;;;;4.93;2.30;;;;;;;21.72;100.00;101454.19;2533281;23;20155;-69
2023/07/23 03:38:32;;;;;;;6.77;2.70;;;;;;;21.73;100.00;101461.38;2532901;23;20150;-69
2023/07/23 03:39:33;;;;;;;6.33;2.30;;;;;;;21.59;100.00;101437.53;2532773;23;20585;-69
2023/07/23 03:40:33;;;;;;;4.50;2.30;;;;;;;21.62;100.00;101450.66;2533013;23;20154;-69
2023/07/23 03:41:34;;;;;;;5.20;2.40;;;;;;;21.64;100.00;101450.19;2533085;23;20151;-69
2023/07/23 03:42:34;;;;;;;5.40;2.50;;;;;;;21.64;100.00;101455.81;2520212;23;20155;-69
2023/07/23 03:43:34;;;;;;;7.60;2.70;;;;;;;21.61;100.00;101457.59;2519911;23;20147;-69
2023/07/23 03:44:35;;;;;;;7.23;2.70;;;;;;;21.56;100.00;101455.44;2533201;23;20601;-69
2023/07/23 03:45:35;;;;;;;6.27;2.90;;;;;;;21.55;100.00;101462.34;2532214;23;20182;-69
2023/07/23 03:47:03;;;;;;;7.97;2.60;;;;;;;21.33;100.00;101453.50;2533359;23;20173;-69
2023/07/23 03:48:04;;;;;;;5.40;2.10;;;;;;;21.50;100.00;101465.06;2531843;23;20214;-69
2023/07/23 03:49:05;;;;;;;6.13;2.50;;;;;;;21.47;100.00;101477.31;2533334;23;20151;-69
2023/07/23 03:50:06;;;;;;;6.20;2.47;;;;;;;21.46;100.00;101470.91;2532399;23;20150;-69
2023/07/23 03:51:06;;;;;;;8.33;2.93;;;;;;;21.42;100.00;101478.78;2533409;23;20151;-69
2023/07/23 03:52:07;;;;;;;5.70;2.50;;;;;;;21.18;100.00;101460.41;2532644;23;20153;-69
2023/07/23 03:53:08;;;;;;;3.23;2.07;;;;;;;21.32;100.00;101476.53;2532832;23;20218;-69
2023/07/23 03:54:08;;;;;;;5.17;2.37;;;;;;;21.30;100.00;101481.91;2519877;23;20651;-69
2023/07/23 03:55:08;;;;;;;5.23;2.07;;;;;;;21.25;100.00;101477.72;2519982;23;20707;-69
2023/07/23 03:56:09;;;;;;;5.50;2.07;;;;;;;21.26;100.00;101476.47;2532391;23;20225;-69
2023/07/23 03:57:09;;;;;;;6.27;2.63;;;;;;;21.18;100.00;101477.34;2533094;23;20158;-69
2023/07/23 03:58:11;;;;;;;6.27;2.27;;;;;;;21.06;100.00;101475.56;2532572;23;20254;-69
2023/07/23 03:59:12;;;;;;;5.43;2.20;;;;;;;21.13;100.00;101490.03;2533268;23;20617;-69
2023/07/23 04:00:13;;;;;;;5.67;2.80;;;;;;;21.13;100.00;101497.75;2532605;23;20720;-69
2023/07/23 04:01:14;;;;;;;5.13;2.47;;;;;;;21.11;100.00;101500.25;2533102;23;20613;-69
2023/07/23 04:02:14;;;;;;;5.60;2.60;;;;;;;21.05;100.00;101505.00;2532225;23;20759;-69
2023/07/23 04:03:15;;;;;;;6.97;2.80;;;;;;;21.07;100.00;101511.72;2532732;23;20641;-69
2023/07/23 04:04:15;;;;;;;6.33;3.03;;;;;;;21.10;100.00;101507.94;2532866;23;20158;-69
2023/07/23 04:05:16;;;;;;;5.63;2.57;;;;;;;21.09;100.00;101502.78;2532997;23;20238;-69
2023/07/23 04:06:16;;;;;;;4.80;2.30;;;;;;;21.05;100.00;101507.81;2532190;23;20151;-69
2023/07/23 04:07:16;;;;;;;4.00;2.70;;;;;;;20.95;100.00;101514.78;2533340;23;20161;-69
2023/07/23 04:08:17;;;;;;;6.20;2.30;;;;;;;20.84;100.00;101500.47;2532560;23;20603;-69
2023/07/23 04:09:18;;;;;;;5.60;2.83;;;;;;;20.22;100.00;101403.94;2533071;23;20159;-69
2023/07/23 04:10:19;;;;;;;6.60;2.83;;;;;;;20.87;100.00;101520.00;2532953;23;20613;-69
2023/07/23 04:11:19;;;;;;;5.30;2.80;;;;;;;20.87;100.00;101516.41;2532632;23;20718;-69
2023/07/23 04:12:21;;;;;;;6.20;2.53;;;;;;;20.51;100.00;101472.38;2532920;23;20154;-69
2023/07/23 04:13:21;;;;;;;4.80;2.87;;;;;;;20.83;100.00;101519.41;2519838;23;20182;-69
2023/07/23 04:14:23;;;;;;;4.73;3.03;;;;;;;20.46;100.00;101467.41;2520107;23;20443;-69
2023/07/23 04:15:23;;;;;;;5.63;3.23;;;;;;;20.81;100.00;101509.88;2533002;23;20178;-69
2023/07/23 04:16:23;;;;;;;9.30;3.00;;;;;;;20.87;100.00;101528.44;2531857;23;20425;-68
2023/07/23 04:17:24;;;;;;;7.63;3.20;;;;;;;20.90;100.00;101521.88;2532875;23;20177;-68
2023/07/23 04:18:24;;;;;;;4.63;2.87;;;;;;;20.95;100.00;101528.88;2532451;23;20663;-68
2023/07/23 04:19:24;;;;;;;6.03;3.30;;;;;;;20.42;100.00;101452.75;2533189;23;20216;-68
2023/07/23 04:20:25;;;;;;;7.07;3.00;;;;;;;20.98;100.00;101537.16;2533023;23;20163;-68
2023/07/23 04:21:25;;;;;;;6.23;3.03;;;;;;;21.01;100.00;101530.56;2532776;23;20242;-68
2023/07/23 04:22:26;;;;;;;5.27;3.07;;;;;;;20.52;100.00;101430.94;2532840;23;20214;-68
2023/07/23 04:23:26;;;;;;;6.53;3.30;;;;;;;21.09;100.00;101519.69;2532792;23;20166;-68
2023/07/23 04:24:26;;;;;;;4.23;3.20;;;;;;;21.16;100.00;101524.94;2533123;23;20159;-68
2023/07/23 04:25:27;;;;;;;6.40;3.47;;;;;;;21.28;100.00;101541.59;2532933;23;20229;-68
2023/07/23 04:26:28;;;;;;;6.10;3.80;;;;;;;21.33;100.00;101554.25;2532896;23;20157;-68
2023/07/23 04:27:29;;;;;;;7.47;3.73;;;;;;;21.33;100.00;101534.50;2532368;23;20154;-69
2023/07/23 04:28:29;;;;;;;6.07;3.73;;;;;;;21.41;100.00;101542.09;2532463;23;20386;-69
2023/07/23 04:29:30;;;;;;;6.07;3.47;;;;;;;21.39;100.00;101544.59;2532904;23;20162;-69
2023/07/23 04:30:31;;;;;;;3.93;3.23;;;;;;;21.46;100.00;101547.06;2532176;23;20237;-69
2023/07/23 04:31:31;;;;;;;4.87;3.50;;;;;;;21.52;100.00;101544.31;2531881;23;20209;-68
2023/07/23 04:32:32;;;;;;;5.00;3.13;;;;;;;21.50;100.00;101566.59;2533095;23;20151;-68
2023/07/23 04:33:32;;;;;;;7.13;3.77;;;;;;;21.45;100.00;101553.19;2532539;23;20238;-68
2023/07/23 04:34:33;;;;;;;9.53;3.63;;;;;;;21.60;100.00;101568.06;2533031;23;20157;-69
2023/07/23 04:35:34;;;;;;;4.73;3.47;;;;;;;21.52;100.00;101562.03;2532900;23;20217;-68
2023/07/23 04:36:34;;;;;;;4.83;3.37;;;;;;;21.73;100.00;101557.28;2532768;23;20268;-68
2023/07/23 04:37:35;;;;;;;5.20;3.73;;;;;;;21.31;100.00;101518.06;2532169;23;20583;-68
2023/07/23 04:38:35;;;;;;;5.90;3.83;;;;;;;21.67;100.00;101567.66;2532408;23;20158;-68